De Tour Village, Michigan
Current Conditions -  °F | °C
As of 2:35 PM on Tuesday 21 Oct 2014 (Local Time) from KDRM Reporting Station
Clear Clear  
Wind Chill: 40°   Ceiling: Unl
Heat Index: 44°   Visibility: 10mi
Dew Point: 30°   Wind: 7mph
Humidity: 58%   Direction: 20°NNE
Pressure: 30.2"   Gusts: 17mph
Location:  45.99°N, 83.9°W
Report Text: KDRM 211835Z AUTO 02006G15KT 10SM CLR 07/M01 A3020 RMK AO2 T00651013
Loading
Personal Weather Stations






























Interactive Weather Map
Tropical Storm Tracking
New forecast layout! Learn more

10-Day Weather Forecast

Advertisements
Track Severe Weather on mobile